Time;durP1;ratioP1;P1;durP2;ratioP2;P2;SDS_P1;SDS_P2;PMS_P1;PMS_P2;Temp;Humidity;BMP_temperature;BMP_pressure;BME280_temperature;BME280_humidity;BME280_pressure;Samples;Min_cycle;Max_cycle;Signal;HPM_P1;HPM_P2
2023/10/16 00:00:43;;;;;;;5.63;1.10;;;;;;;-145.14;100.00;70583.66;4999131;28;20364;-75
2023/10/16 00:03:12;;;;;;;3.93;1.10;;;;;;;-145.14;100.00;70583.66;4999390;28;20181;-75
2023/10/16 00:05:40;;;;;;;3.53;1.00;;;;;;;-145.14;100.00;70583.66;4999921;28;20873;-75
2023/10/16 00:08:08;;;;;;;3.20;1.10;;;;;;;-145.14;100.00;70583.66;4999726;28;20460;-75
2023/10/16 00:10:35;;;;;;;3.37;0.80;;;;;;;-145.14;100.00;70583.66;4998882;28;20471;-75
2023/10/16 00:13:05;;;;;;;3.63;0.90;;;;;;;-145.14;100.00;70583.66;4998304;28;20192;-75
2023/10/16 00:15:44;;;;;;;6.90;1.40;;;;;;;-145.14;100.00;70583.66;4997107;28;20930;-75
2023/10/16 00:18:16;;;;;;;4.13;0.90;;;;;;;-145.14;100.00;70583.66;5001828;28;20503;-75
2023/10/16 00:20:41;;;;;;;3.30;0.90;;;;;;;-145.14;100.00;70583.66;5008576;28;20435;-75
2023/10/16 00:23:10;;;;;;;3.80;1.10;;;;;;;-145.14;100.00;70583.66;4998130;28;20811;-75
2023/10/16 00:25:39;;;;;;;3.63;0.90;;;;;;;-145.14;100.00;70583.66;4993357;28;20251;-75
2023/10/16 00:28:09;;;;;;;2.33;0.73;;;;;;;-145.14;100.00;70583.66;4996066;28;20483;-74
2023/10/16 00:30:40;;;;;;;4.23;1.13;;;;;;;-145.14;100.00;70583.66;4999371;28;20462;-75
2023/10/16 00:33:10;;;;;;;2.97;0.83;;;;;;;-145.14;100.00;70583.66;5001123;28;20464;-75
2023/10/16 00:35:43;;;;;;;2.53;0.80;;;;;;;-145.14;100.00;70583.66;5004542;28;20432;-75
2023/10/16 00:38:13;;;;;;;4.80;1.30;;;;;;;-145.14;100.00;70583.66;4993490;28;20968;-75
2023/10/16 00:43:28;;;;;;;3.40;0.80;;;;;;;-145.14;100.00;70583.66;4999448;28;20672;-75
2023/10/16 00:46:05;;;;;;;2.93;1.03;;;;;;;-145.14;100.00;70583.66;5000360;28;20474;-75
2023/10/16 00:48:33;;;;;;;3.27;0.97;;;;;;;-145.14;100.00;70583.66;4997747;28;20626;-75
2023/10/16 00:51:06;;;;;;;6.47;1.27;;;;;;;-145.14;100.00;70583.66;4999838;28;20503;-75
2023/10/16 00:53:31;;;;;;;4.80;1.20;;;;;;;-145.14;100.00;70583.66;4998044;28;20444;-75
2023/10/16 00:55:58;;;;;;;3.50;1.10;;;;;;;-145.14;100.00;70583.66;4999904;28;20446;-75
2023/10/16 00:58:27;;;;;;;6.20;0.90;;;;;;;-145.14;100.00;70583.66;5013786;28;20236;-75
2023/10/16 01:00:52;;;;;;;4.13;1.00;;;;;;;-145.14;100.00;70583.66;4997553;28;20506;-75
2023/10/16 01:03:21;;;;;;;4.53;1.30;;;;;;;-145.14;100.00;70583.66;4998468;28;20448;-75
2023/10/16 01:05:49;;;;;;;3.87;0.90;;;;;;;-145.14;100.00;70583.66;4999945;28;20432;-75
2023/10/16 01:08:17;;;;;;;4.97;1.10;;;;;;;-145.14;100.00;70583.66;4994851;28;20324;-75
2023/10/16 01:10:48;;;;;;;5.83;1.10;;;;;;;-145.14;100.00;70583.66;5009786;28;20472;-75
2023/10/16 01:13:16;;;;;;;2.87;0.93;;;;;;;-145.14;100.00;70583.66;5002345;28;20521;-74
2023/10/16 01:15:50;;;;;;;7.00;1.27;;;;;;;-145.14;100.00;70583.66;5003085;28;20480;-75
2023/10/16 01:18:17;;;;;;;3.17;0.90;;;;;;;-145.14;100.00;70583.66;5002035;28;20900;-76
2023/10/16 01:20:48;;;;;;;4.63;0.93;;;;;;;-145.14;100.00;70583.66;5003998;28;20453;-75
2023/10/16 01:23:18;;;;;;;4.60;1.13;;;;;;;-145.14;100.00;70583.66;5004718;28;20443;-75
2023/10/16 01:25:47;;;;;;;3.40;0.90;;;;;;;-145.14;100.00;70583.66;5002719;28;20475;-75
2023/10/16 01:28:16;;;;;;;4.47;0.80;;;;;;;-145.14;100.00;70583.66;5003503;28;20509;-75
2023/10/16 01:30:49;;;;;;;4.77;1.00;;;;;;;-145.14;100.00;70583.66;5014370;28;20960;-75
2023/10/16 01:33:16;;;;;;;2.00;0.70;;;;;;;-145.14;100.00;70583.66;5002569;28;20456;-75
2023/10/16 01:35:45;;;;;;;5.33;1.03;;;;;;;-145.14;100.00;70583.66;4998503;28;20447;-75
2023/10/16 01:38:20;;;;;;;3.93;1.10;;;;;;;-145.14;100.00;70583.66;5004676;28;20459;-75
2023/10/16 01:41:08;;;;;;;3.77;0.90;;;;;;;-145.14;100.00;70583.66;5001750;28;20447;-75
2023/10/16 01:43:36;;;;;;;3.40;0.80;;;;;;;-145.14;100.00;70583.66;5002827;28;20452;-75
2023/10/16 01:46:13;;;;;;;5.03;0.90;;;;;;;-145.14;100.00;70583.66;5004317;28;20451;-75
2023/10/16 01:48:44;;;;;;;3.10;0.70;;;;;;;-145.14;100.00;70583.66;5003442;28;20467;-75
2023/10/16 01:51:18;;;;;;;2.83;0.70;;;;;;;-145.14;100.00;70583.66;5013676;28;20467;-75
2023/10/16 01:53:44;;;;;;;3.80;0.70;;;;;;;-145.14;100.00;70583.66;4999401;28;20419;-75
2023/10/16 01:56:12;;;;;;;3.83;0.83;;;;;;;-145.14;100.00;70583.66;5000462;28;20948;-75
2023/10/16 01:58:45;;;;;;;6.43;1.83;;;;;;;-145.14;100.00;70583.66;5003835;28;20208;-75
2023/10/16 02:01:12;;;;;;;3.30;0.70;;;;;;;-145.14;100.00;70583.66;5003022;28;21005;-75
2023/10/16 02:03:43;;;;;;;6.07;0.80;;;;;;;-145.14;100.00;70583.66;5000947;28;20437;-75
2023/10/16 02:06:11;;;;;;;3.87;0.70;;;;;;;-145.14;100.00;70583.66;5012576;28;20436;-75
2023/10/16 02:08:37;;;;;;;4.20;0.97;;;;;;;-145.14;100.00;70583.66;4999484;28;20460;-75
2023/10/16 02:11:02;;;;;;;2.27;0.70;;;;;;;-145.14;100.00;70583.66;4999928;28;20491;-76
2023/10/16 02:13:30;;;;;;;2.93;0.90;;;;;;;-145.14;100.00;70583.66;4997426;28;20977;-75
2023/10/16 02:15:56;;;;;;;2.87;0.83;;;;;;;-145.14;100.00;70583.66;5000799;28;20195;-76
2023/10/16 02:18:27;;;;;;;2.90;0.80;;;;;;;-145.14;100.00;70583.66;5005581;28;20546;-76
2023/10/16 02:20:53;;;;;;;3.80;1.00;;;;;;;-145.14;100.00;70583.66;5001620;28;20197;-76
2023/10/16 02:23:19;;;;;;;3.47;1.00;;;;;;;-145.14;100.00;70583.66;5002088;28;20495;-76
2023/10/16 02:25:45;;;;;;;3.10;1.00;;;;;;;-145.14;100.00;70583.66;5008228;28;20865;-75
2023/10/16 02:28:19;;;;;;;6.73;1.00;;;;;;;-145.14;100.00;70583.66;5004603;28;20216;-76
2023/10/16 02:30:49;;;;;;;2.60;0.80;;;;;;;-145.14;100.00;70583.66;5002052;28;21044;-76
2023/10/16 02:33:26;;;;;;;3.60;0.80;;;;;;;-145.14;100.00;70583.66;5006093;28;20455;-75
2023/10/16 02:35:53;;;;;;;3.13;0.80;;;;;;;-145.14;100.00;70583.66;5003402;28;20455;-76
2023/10/16 02:38:29;;;;;;;2.63;0.90;;;;;;;-145.14;100.00;70583.66;5000221;28;20464;-75
2023/10/16 02:41:03;;;;;;;3.70;0.80;;;;;;;-145.14;100.00;70583.66;5003889;28;20484;-76
2023/10/16 02:43:29;;;;;;;6.13;0.93;;;;;;;-145.14;100.00;70583.66;5000700;28;20440;-75
2023/10/16 02:45:56;;;;;;;3.33;1.00;;;;;;;-145.14;100.00;70583.66;4999964;28;20444;-75
2023/10/16 02:48:22;;;;;;;4.03;0.80;;;;;;;-145.14;100.00;70583.66;5002573;28;20948;-75
2023/10/16 02:50:59;;;;;;;3.33;0.80;;;;;;;-145.14;100.00;70583.66;5002052;28;20460;-75
2023/10/16 02:53:29;;;;;;;2.10;0.70;;;;;;;-145.14;100.00;70583.66;5000516;28;20497;-75
2023/10/16 02:56:05;;;;;;;3.70;0.83;;;;;;;-145.14;100.00;70583.66;5000352;28;20486;-75
2023/10/16 02:58:32;;;;;;;3.40;0.70;;;;;;;-145.14;100.00;70583.66;5005084;28;20475;-76
2023/10/16 03:01:06;;;;;;;4.67;1.10;;;;;;;-145.14;100.00;70583.66;5001229;28;20476;-76
2023/10/16 03:03:32;;;;;;;3.80;1.00;;;;;;;-145.14;100.00;70583.66;5001773;28;20516;-75
2023/10/16 03:06:01;;;;;;;3.73;1.00;;;;;;;-145.14;100.00;70583.66;4999300;28;20536;-75
2023/10/16 03:08:29;;;;;;;2.60;0.70;;;;;;;-145.14;100.00;70583.66;4999982;28;20304;-75
2023/10/16 03:10:59;;;;;;;5.23;0.90;;;;;;;-145.14;100.00;70583.66;5003093;28;20471;-76
2023/10/16 03:13:26;;;;;;;3.17;1.00;;;;;;;-145.14;100.00;70583.66;4998321;28;20450;-76
2023/10/16 03:16:05;;;;;;;3.00;0.90;;;;;;;-145.14;100.00;70583.66;5000257;28;20460;-76
2023/10/16 03:18:32;;;;;;;5.17;0.83;;;;;;;-145.14;100.00;70583.66;5014159;28;20968;-76
2023/10/16 03:21:26;;;;;;;2.80;0.90;;;;;;;-145.14;100.00;70583.66;5003479;28;21021;-76
2023/10/16 03:23:49;;;;;;;4.03;0.97;;;;;;;-145.14;100.00;70583.66;5003393;28;20443;-76
2023/10/16 03:26:31;;;;;;;3.20;0.87;;;;;;;-145.14;100.00;70583.66;4998581;28;20806;-76
2023/10/16 03:29:00;;;;;;;4.13;1.17;;;;;;;-145.14;100.00;70583.66;4999835;28;21503;-76
2023/10/16 03:31:27;;;;;;;3.17;0.80;;;;;;;-145.14;100.00;70583.66;5003089;28;20476;-76
2023/10/16 03:33:56;;;;;;;2.53;0.80;;;;;;;-145.14;100.00;70583.66;5003909;28;20456;-76
2023/10/16 03:36:25;;;;;;;3.37;0.90;;;;;;;-145.14;100.00;70583.66;5000408;28;20827;-77
2023/10/16 03:38:51;;;;;;;3.87;1.20;;;;;;;-145.14;100.00;70583.66;5000777;28;20969;-76
2023/10/16 03:43:46;;;;;;;3.70;0.90;;;;;;;-145.14;100.00;70583.66;4998177;28;20276;-75
2023/10/16 03:46:13;;;;;;;7.40;1.30;;;;;;;-145.14;100.00;70583.66;5000551;28;20440;-75
2023/10/16 03:48:39;;;;;;;2.47;0.70;;;;;;;-145.14;100.00;70583.66;5001813;28;20833;-76
2023/10/16 03:51:06;;;;;;;5.83;1.30;;;;;;;-145.14;100.00;70583.66;5001634;28;20481;-76
2023/10/16 03:53:32;;;;;;;5.03;0.90;;;;;;;-145.14;100.00;70583.66;4998920;28;20746;-75
2023/10/16 03:55:58;;;;;;;3.50;0.90;;;;;;;-145.14;100.00;70583.66;4998894;28;20625;-76
2023/10/16 03:58:25;;;;;;;3.90;1.10;;;;;;;-145.14;100.00;70583.66;5009247;28;20534;-76
2023/10/16 04:00:52;;;;;;;5.30;0.77;;;;;;;-145.14;100.00;70583.66;5000059;28;20221;-75
2023/10/16 04:03:21;;;;;;;6.63;1.33;;;;;;;-145.14;100.00;70583.66;5000266;28;20990;-75
2023/10/16 04:05:48;;;;;;;4.20;0.90;;;;;;;-145.14;100.00;70583.66;5003713;28;20539;-76
2023/10/16 04:08:14;;;;;;;4.43;1.30;;;;;;;-145.14;100.00;70583.66;5002376;28;20558;-75
2023/10/16 04:10:47;;;;;;;3.10;0.80;;;;;;;-145.14;100.00;70583.66;5004900;28;20529;-76
2023/10/16 04:13:18;;;;;;;3.20;0.70;;;;;;;-145.14;100.00;70583.66;4998745;28;20946;-76
2023/10/16 04:15:59;;;;;;;3.20;0.77;;;;;;;-145.14;100.00;70583.66;4995922;28;20792;-76
2023/10/16 04:31:57;;;;;;;2.80;0.73;;;;;;;-145.14;100.00;70583.66;4999904;28;20867;-75
2023/10/16 05:00:56;;;;;;;4.57;1.20;;;;;;;-145.14;100.00;70583.66;4984113;28;21025;-69
2023/10/16 05:06:38;;;;;;;4.80;0.93;;;;;;;-145.14;100.00;70583.66;4986262;28;20425;-70
2023/10/16 06:14:47;;;;;;;4.23;0.90;;;;;;;-145.14;100.00;70583.66;4989357;28;20463;-70
2023/10/16 06:17:15;;;;;;;4.80;1.03;;;;;;;-145.14;100.00;70583.66;4980617;28;20975;-70
2023/10/16 06:19:42;;;;;;;4.70;1.33;;;;;;;-145.14;100.00;70583.66;4988799;28;20233;-70
2023/10/16 06:22:08;;;;;;;4.10;1.03;;;;;;;-145.14;100.00;70583.66;4990491;28;20981;-70
2023/10/16 06:27:08;;;;;;;4.40;1.57;;;;;;;-145.14;100.00;70583.66;4991100;28;20440;-70
2023/10/16 06:29:35;;;;;;;2.23;0.70;;;;;;;-145.14;100.00;70583.66;4993476;28;20344;-70
2023/10/16 06:32:19;;;;;;;3.47;1.00;;;;;;;-145.14;100.00;70583.66;4992404;28;20982;-70
2023/10/16 06:34:47;;;;;;;3.30;0.93;;;;;;;-145.14;100.00;70583.66;4987853;28;20459;-70
2023/10/16 06:37:21;;;;;;;2.10;0.70;;;;;;;-145.14;100.00;70583.66;4987300;28;20502;-70
2023/10/16 06:40:16;;;;;;;3.60;0.93;;;;;;;-145.14;100.00;70583.66;4984927;28;20452;-70
2023/10/16 06:42:45;;;;;;;4.13;1.40;;;;;;;-145.14;100.00;70583.66;4986689;28;20469;-70
2023/10/16 06:45:19;;;;;;;3.10;1.10;;;;;;;-145.14;100.00;70583.66;4991613;28;20429;-70
2023/10/16 06:47:49;;;;;;;4.40;1.50;;;;;;;-145.14;100.00;70583.66;4994467;28;20841;-69
2023/10/16 06:52:55;;;;;;;4.53;1.20;;;;;;;-145.14;100.00;70583.66;4987982;28;20421;-70
2023/10/16 06:55:21;;;;;;;4.80;1.57;;;;;;;-145.14;100.00;70583.66;4991458;28;20427;-70
2023/10/16 06:57:48;;;;;;;3.10;1.20;;;;;;;-145.14;100.00;70583.66;4987793;28;20531;-69
2023/10/16 07:00:27;;;;;;;3.40;1.40;;;;;;;-145.14;100.00;70583.66;4989425;28;20455;-71
2023/10/16 07:02:56;;;;;;;4.80;1.20;;;;;;;-145.14;100.00;70583.66;4982728;28;20433;-71
2023/10/16 07:05:23;;;;;;;4.77;1.40;;;;;;;-145.14;100.00;70583.66;4985678;28;20524;-70
2023/10/16 07:07:49;;;;;;;3.40;1.10;;;;;;;-145.14;100.00;70583.66;4989509;28;20444;-70
2023/10/16 07:10:15;;;;;;;3.23;1.10;;;;;;;-145.14;100.00;70583.66;4989952;28;20421;-69
2023/10/16 07:12:58;;;;;;;5.80;2.17;;;;;;;-145.14;100.00;70583.66;4984480;28;20634;-69
2023/10/16 07:15:31;;;;;;;6.07;1.50;;;;;;;-145.14;100.00;70583.66;5005339;28;20192;-70
2023/10/16 07:18:02;;;;;;;4.23;1.20;;;;;;;-145.14;100.00;70583.66;4984080;28;20514;-70
2023/10/16 07:20:29;;;;;;;3.80;1.37;;;;;;;-145.14;100.00;70583.66;4982258;28;20429;-70
2023/10/16 07:22:59;;;;;;;3.97;1.70;;;;;;;-145.14;100.00;70583.66;4983290;28;20426;-70
2023/10/16 07:25:50;;;;;;;4.33;1.37;;;;;;;-145.14;100.00;70583.66;4993139;28;20505;-70
2023/10/16 07:28:18;;;;;;;4.40;1.50;;;;;;;-145.14;100.00;70583.66;4991239;28;20457;-69
2023/10/16 07:30:43;;;;;;;6.07;1.53;;;;;;;-145.14;100.00;70583.66;4984629;28;20496;-70
2023/10/16 07:33:15;;;;;;;3.97;1.20;;;;;;;-145.14;100.00;70583.66;4990244;28;21029;-70
2023/10/16 07:35:44;;;;;;;3.03;1.00;;;;;;;-145.14;100.00;70583.66;4986408;28;20984;-70
2023/10/16 07:38:20;;;;;;;5.20;1.03;;;;;;;-145.14;100.00;70583.66;4984501;28;20931;-70
2023/10/16 07:40:51;;;;;;;4.87;1.33;;;;;;;-145.14;100.00;70583.66;4987278;28;20429;-70
2023/10/16 07:43:27;;;;;;;5.63;1.33;;;;;;;-145.14;100.00;70583.66;4986407;28;20908;-70
2023/10/16 07:46:39;;;;;;;4.03;1.10;;;;;;;-145.14;100.00;70583.66;4992132;28;20524;-70
2023/10/16 07:48:50;;;;;;;3.23;1.03;;;;;;;-145.14;100.00;70583.66;4982370;28;20503;-70
2023/10/16 07:51:17;;;;;;;3.47;0.97;;;;;;;-145.14;100.00;70583.66;4988450;28;20469;-70
2023/10/16 07:53:42;;;;;;;7.57;1.10;;;;;;;-145.14;100.00;70583.66;4990095;28;20443;-71
2023/10/16 07:58:56;;;;;;;2.97;0.77;;;;;;;-145.14;100.00;70583.66;4988630;28;20219;-69
2023/10/16 08:01:41;;;;;;;6.47;1.10;;;;;;;-145.14;100.00;70583.66;4981542;28;21032;-69
2023/10/16 08:06:52;;;;;;;5.63;1.30;;;;;;;-145.14;100.00;70583.66;4989637;28;20450;-69
2023/10/16 08:12:12;;;;;;;5.10;0.90;;;;;;;-145.14;100.00;70583.66;4987362;28;20562;-69
2023/10/16 08:14:41;;;;;;;2.70;0.87;;;;;;;-145.14;100.00;70583.66;4989589;28;20912;-70
2023/10/16 08:17:14;;;;;;;6.53;1.10;;;;;;;-145.14;100.00;70583.66;4988704;28;20448;-69
2023/10/16 08:19:49;;;;;;;3.30;0.90;;;;;;;-145.14;100.00;70583.66;4986935;28;20443;-70
2023/10/16 08:22:15;;;;;;;4.77;0.87;;;;;;;-145.14;100.00;70583.66;4985319;28;20424;-69
2023/10/16 08:24:57;;;;;;;4.90;1.10;;;;;;;-145.14;100.00;70583.66;4985233;28;20444;-69
2023/10/16 08:27:43;;;;;;;4.03;1.07;;;;;;;-145.14;100.00;70583.66;4984321;28;20187;-69
2023/10/16 08:30:32;;;;;;;4.30;0.80;;;;;;;-145.14;100.00;70583.66;4987632;28;20433;-69
2023/10/16 08:33:07;;;;;;;3.27;0.70;;;;;;;-145.14;100.00;70583.66;4982723;28;20531;-69
2023/10/16 08:35:38;;;;;;;5.87;1.00;;;;;;;-145.14;100.00;70583.66;4986980;28;21372;-69
2023/10/16 08:38:13;;;;;;;2.53;0.77;;;;;;;-145.14;100.00;70583.66;4987247;28;20518;-69
2023/10/16 08:40:43;;;;;;;4.47;0.90;;;;;;;-145.14;100.00;70583.66;4984826;28;21023;-69
2023/10/16 08:43:09;;;;;;;3.37;0.90;;;;;;;-145.14;100.00;70583.66;4985590;28;20468;-70
2023/10/16 08:45:48;;;;;;;2.20;0.63;;;;;;;-145.14;100.00;70583.66;4987574;28;20468;-69
2023/10/16 08:48:17;;;;;;;2.20;0.67;;;;;;;-145.14;100.00;70583.66;4986234;28;20209;-69
2023/10/16 08:50:52;;;;;;;3.67;1.00;;;;;;;-145.14;100.00;70583.66;5004661;28;20455;-69
2023/10/16 08:53:31;;;;;;;3.40;0.70;;;;;;;-145.14;100.00;70583.66;4985756;28;20427;-69
2023/10/16 08:56:03;;;;;;;4.87;0.83;;;;;;;-145.14;100.00;70583.66;4985742;28;20443;-69
2023/10/16 08:58:34;;;;;;;4.30;1.07;;;;;;;-145.14;100.00;70583.66;4985490;28;20967;-69
2023/10/16 09:01:00;;;;;;;3.33;0.80;;;;;;;-145.14;100.00;70583.66;4983393;28;20437;-69
2023/10/16 09:03:26;;;;;;;3.07;0.70;;;;;;;-145.14;100.00;70583.66;4987061;28;20451;-69
2023/10/16 09:05:52;;;;;;;3.13;0.80;;;;;;;-145.14;100.00;70583.66;4981890;28;21137;-69
2023/10/16 09:08:17;;;;;;;5.07;0.77;;;;;;;-145.14;100.00;70583.66;4989447;28;20452;-69
2023/10/16 09:10:44;;;;;;;4.60;1.23;;;;;;;-145.14;100.00;70583.66;4985311;28;20224;-69
2023/10/16 09:13:19;;;;;;;4.23;0.80;;;;;;;-145.14;100.00;70583.66;4989187;28;20182;-69
2023/10/16 09:15:45;;;;;;;2.83;0.90;;;;;;;-145.14;100.00;70583.66;4984528;28;20961;-70
2023/10/16 09:18:16;;;;;;;3.07;0.80;;;;;;;-145.14;100.00;70583.66;4985999;28;20456;-69
2023/10/16 09:20:42;;;;;;;2.67;0.80;;;;;;;-145.14;100.00;70583.66;4983605;28;20184;-71
2023/10/16 09:23:13;;;;;;;3.07;0.90;;;;;;;-145.14;100.00;70583.66;4985398;28;20425;-69
2023/10/16 09:25:46;;;;;;;2.27;0.87;;;;;;;-145.14;100.00;70583.66;4989575;28;20189;-69
2023/10/16 09:28:18;;;;;;;3.20;0.83;;;;;;;-145.14;100.00;70583.66;4987145;28;20960;-70
2023/10/16 09:30:48;;;;;;;5.60;1.10;;;;;;;-145.14;100.00;70583.66;4986847;28;20579;-70
2023/10/16 09:33:16;;;;;;;4.13;1.00;;;;;;;-145.14;100.00;70583.66;4991071;28;20859;-69
2023/10/16 09:35:45;;;;;;;6.93;0.80;;;;;;;-145.14;100.00;70583.66;4984893;28;20436;-69
2023/10/16 09:38:18;;;;;;;3.70;0.77;;;;;;;-145.14;100.00;70583.66;4986516;28;20448;-69
2023/10/16 09:49:14;;;;;;;4.47;1.20;;;;;;;-145.14;100.00;70583.66;4989807;28;20969;-69
2023/10/16 09:51:40;;;;;;;4.93;1.47;;;;;;;-145.14;100.00;70583.66;4986739;28;21053;-69
2023/10/16 09:54:09;;;;;;;2.70;0.90;;;;;;;-145.14;100.00;70583.66;4990479;28;20483;-69
2023/10/16 09:56:38;;;;;;;3.70;0.73;;;;;;;-145.14;100.00;70583.66;4987817;28;20429;-69
2023/10/16 09:59:14;;;;;;;2.50;0.70;;;;;;;-145.14;100.00;70583.66;4987333;28;20551;-69
2023/10/16 10:01:42;;;;;;;2.80;0.80;;;;;;;-145.14;100.00;70583.66;4986255;28;20855;-69
2023/10/16 10:04:11;;;;;;;5.23;1.20;;;;;;;-145.14;100.00;70583.66;4991287;28;20483;-69
2023/10/16 10:06:39;;;;;;;2.83;0.97;;;;;;;-145.14;100.00;70583.66;4989722;28;20424;-70
2023/10/16 10:14:40;;;;;;;3.77;1.00;;;;;;;-145.14;100.00;70583.66;4991794;28;20467;-69
2023/10/16 10:17:09;;;;;;;4.40;0.87;;;;;;;-145.14;100.00;70583.66;4982623;28;21239;-69
2023/10/16 10:19:41;;;;;;;3.90;1.00;;;;;;;-145.14;100.00;70583.66;4988739;28;20459;-70
2023/10/16 10:22:26;;;;;;;2.63;0.80;;;;;;;-145.14;100.00;70583.66;4988449;28;20432;-69
2023/10/16 10:25:16;;;;;;;4.70;0.97;;;;;;;-145.14;100.00;70583.66;4982779;28;20618;-69
2023/10/16 10:27:42;;;;;;;5.00;1.00;;;;;;;-145.14;100.00;70583.66;4986507;28;20446;-69
2023/10/16 10:30:27;;;;;;;3.33;0.90;;;;;;;-145.14;100.00;70583.66;4987089;28;20444;-69
2023/10/16 10:32:55;;;;;;;3.33;1.00;;;;;;;-145.14;100.00;70583.66;4992309;28;20444;-69
2023/10/16 10:35:29;;;;;;;3.87;0.80;;;;;;;-145.14;100.00;70583.66;4989796;28;20440;-69
2023/10/16 10:38:29;;;;;;;3.90;0.90;;;;;;;-145.14;100.00;70583.66;4989000;28;20453;-69
2023/10/16 10:41:08;;;;;;;3.00;0.77;;;;;;;-145.14;100.00;70583.66;4954507;28;20954;-69
2023/10/16 10:43:48;;;;;;;2.00;0.70;;;;;;;-145.14;100.00;70583.66;4988988;28;20440;-69
2023/10/16 10:46:26;;;;;;;3.80;0.70;;;;;;;-145.14;100.00;70583.66;4978604;28;20946;-69
2023/10/16 10:48:54;;;;;;;2.10;0.70;;;;;;;-145.14;100.00;70583.66;4984394;28;20490;-69
2023/10/16 10:51:20;;;;;;;2.83;0.80;;;;;;;-145.14;100.00;70583.66;4984567;28;20471;-69
2023/10/16 10:53:57;;;;;;;4.87;1.27;;;;;;;-145.14;100.00;70583.66;4982290;28;20816;-69
2023/10/16 10:56:37;;;;;;;2.90;0.80;;;;;;;-145.14;100.00;70583.66;4989134;28;20481;-69
2023/10/16 10:59:08;;;;;;;6.80;0.97;;;;;;;-145.14;100.00;70583.66;4988462;28;20517;-69
2023/10/16 11:01:37;;;;;;;2.10;0.80;;;;;;;-145.14;100.00;70583.66;4981236;28;20459;-69
2023/10/16 11:04:09;;;;;;;2.60;0.70;;;;;;;-145.14;100.00;70583.66;4986665;28;20436;-69
2023/10/16 11:06:51;;;;;;;4.77;0.70;;;;;;;-145.14;100.00;70583.66;4984402;28;20453;-69
2023/10/16 11:09:20;;;;;;;3.00;1.00;;;;;;;-145.14;100.00;70583.66;4980906;28;20838;-69
2023/10/16 11:11:47;;;;;;;2.50;0.60;;;;;;;-145.14;100.00;70583.66;4986595;28;20467;-69
2023/10/16 11:14:14;;;;;;;1.93;0.70;;;;;;;-145.14;100.00;70583.66;4992234;28;20806;-69
2023/10/16 11:16:48;;;;;;;2.73;0.80;;;;;;;-145.14;100.00;70583.66;4987233;28;20464;-70
2023/10/16 11:19:23;;;;;;;3.83;0.90;;;;;;;-145.14;100.00;70583.66;4990766;28;20467;-69
2023/10/16 11:21:48;;;;;;;2.77;0.70;;;;;;;-145.14;100.00;70583.66;4988547;28;20463;-69
2023/10/16 11:24:14;;;;;;;2.00;0.70;;;;;;;-145.14;100.00;70583.66;4988223;28;20927;-69
2023/10/16 11:26:42;;;;;;;2.77;0.80;;;;;;;-145.14;100.00;70583.66;4988046;28;20276;-69
2023/10/16 11:29:12;;;;;;;2.70;0.77;;;;;;;-145.14;100.00;70583.66;4987817;28;20296;-69
2023/10/16 11:31:41;;;;;;;2.57;0.80;;;;;;;-145.14;100.00;70583.66;4987413;28;20886;-69
2023/10/16 11:34:12;;;;;;;4.07;1.13;;;;;;;-145.14;100.00;70583.66;4989869;28;20444;-69
2023/10/16 11:36:39;;;;;;;4.90;1.00;;;;;;;-145.14;100.00;70583.66;4990524;28;20429;-69
2023/10/16 11:39:09;;;;;;;4.80;0.90;;;;;;;-145.14;100.00;70583.66;4985414;28;20457;-69
2023/10/16 11:41:38;;;;;;;4.80;1.00;;;;;;;-145.14;100.00;70583.66;4985064;28;20460;-69
2023/10/16 11:44:14;;;;;;;3.57;0.93;;;;;;;-145.14;100.00;70583.66;4990929;28;20520;-69
2023/10/16 11:46:46;;;;;;;7.07;0.90;;;;;;;-145.14;100.00;70583.66;4986449;28;20427;-69
2023/10/16 11:49:21;;;;;;;;;;;;;;;;;;;;;
2023/10/16 11:51:48;;;;;;;5.50;0.90;;;;;;;-145.14;100.00;70583.66;4991489;28;20804;-69
2023/10/16 11:54:23;;;;;;;2.67;0.80;;;;;;;-145.14;100.00;70583.66;4983507;28;20894;-69
2023/10/16 11:56:55;;;;;;;3.77;1.00;;;;;;;-145.14;100.00;70583.66;4986057;28;20487;-69
2023/10/16 11:59:22;;;;;;;5.03;1.10;;;;;;;-145.14;100.00;70583.66;4995023;28;20840;-68
2023/10/16 12:01:51;;;;;;;3.77;1.00;;;;;;;-145.14;100.00;70583.66;4993461;28;20425;-69
2023/10/16 12:04:20;;;;;;;2.97;0.93;;;;;;;-145.14;100.00;70583.66;4987637;28;20433;-69
2023/10/16 12:06:50;;;;;;;3.40;1.00;;;;;;;-145.14;100.00;70583.66;4984203;28;20926;-69
2023/10/16 12:09:27;;;;;;;3.03;0.90;;;;;;;-145.14;100.00;70583.66;4987058;28;20531;-69
2023/10/16 12:11:54;;;;;;;4.50;1.00;;;;;;;-145.14;100.00;70583.66;4986560;28;20476;-69
2023/10/16 12:14:22;;;;;;;6.73;1.10;;;;;;;-145.14;100.00;70583.66;4979911;28;20437;-69
2023/10/16 12:16:47;;;;;;;2.43;0.80;;;;;;;-145.14;100.00;70583.66;4980002;28;20859;-69
2023/10/16 12:19:14;;;;;;;3.27;0.80;;;;;;;-145.14;100.00;70583.66;4985328;28;20440;-69
2023/10/16 12:21:45;;;;;;;2.80;0.80;;;;;;;-145.14;100.00;70583.66;4986371;28;20545;-69
2023/10/16 12:24:11;;;;;;;4.17;0.70;;;;;;;-145.14;100.00;70583.66;4978114;28;20537;-69
2023/10/16 12:26:40;;;;;;;2.53;0.70;;;;;;;-145.14;100.00;70583.66;4986454;28;20524;-69
2023/10/16 12:29:08;;;;;;;3.70;0.90;;;;;;;-145.14;100.00;70583.66;4980327;28;20633;-69
2023/10/16 12:31:33;;;;;;;2.80;0.93;;;;;;;-145.14;100.00;70583.66;4984291;28;20478;-69
2023/10/16 12:33:59;;;;;;;3.43;0.83;;;;;;;-145.14;100.00;70583.66;4987939;28;20436;-69
2023/10/16 12:36:26;;;;;;;2.13;0.60;;;;;;;-145.14;100.00;70583.66;4986819;28;20184;-69
2023/10/16 12:38:53;;;;;;;2.97;0.87;;;;;;;-145.14;100.00;70583.66;4985216;28;21651;-69
2023/10/16 12:41:19;;;;;;;4.10;0.80;;;;;;;-145.14;100.00;70583.66;4982347;28;20441;-69
2023/10/16 12:43:46;;;;;;;3.10;0.80;;;;;;;-145.14;100.00;70583.66;4984988;28;20431;-70
2023/10/16 12:46:11;;;;;;;4.33;1.17;;;;;;;-145.14;100.00;70583.66;4993220;28;20182;-69
2023/10/16 12:48:37;;;;;;;3.20;1.00;;;;;;;-145.14;100.00;70583.66;4989968;28;20455;-70
2023/10/16 12:51:07;;;;;;;1.90;0.70;;;;;;;-145.14;100.00;70583.66;4989776;28;20213;-69
2023/10/16 12:53:33;;;;;;;3.17;0.67;;;;;;;-145.14;100.00;70583.66;4988560;28;20719;-70
2023/10/16 12:55:58;;;;;;;2.93;0.80;;;;;;;-145.14;100.00;70583.66;4982641;28;20425;-70
2023/10/16 12:58:26;;;;;;;4.40;1.73;;;;;;;-145.14;100.00;70583.66;4978870;28;20270;-69
2023/10/16 13:00:51;;;;;;;3.73;0.80;;;;;;;-145.14;100.00;70583.66;4986673;28;20188;-70
2023/10/16 13:03:22;;;;;;;4.03;0.93;;;;;;;-145.14;100.00;70583.66;4986708;28;20424;-69
2023/10/16 13:05:49;;;;;;;2.33;0.70;;;;;;;-145.14;100.00;70583.66;4982312;28;20184;-70
2023/10/16 13:08:17;;;;;;;2.37;0.67;;;;;;;-145.14;100.00;70583.66;4982270;28;20448;-70
2023/10/16 13:10:43;;;;;;;2.70;0.80;;;;;;;-145.14;100.00;70583.66;4975620;28;20484;-70
2023/10/16 13:13:09;;;;;;;4.20;0.80;;;;;;;-145.14;100.00;70583.66;4977957;28;20429;-70
2023/10/16 13:15:35;;;;;;;7.43;1.07;;;;;;;-145.14;100.00;70583.66;4988465;28;21028;-69
2023/10/16 13:18:11;;;;;;;2.63;0.77;;;;;;;-145.14;100.00;70583.66;4988581;28;20208;-69
2023/10/16 13:20:36;;;;;;;3.63;1.13;;;;;;;-145.14;100.00;70583.66;4979566;28;20498;-69
2023/10/16 13:23:05;;;;;;;2.90;0.80;;;;;;;-145.14;100.00;70583.66;4983798;28;20425;-69
2023/10/16 13:25:34;;;;;;;3.10;0.87;;;;;;;-145.14;100.00;70583.66;4979888;28;20276;-69
2023/10/16 13:28:03;;;;;;;3.43;0.70;;;;;;;-145.14;100.00;70583.66;4984837;28;20499;-69
2023/10/16 13:30:31;;;;;;;2.47;0.90;;;;;;;-145.14;100.00;70583.66;4986079;28;21036;-69
2023/10/16 13:33:00;;;;;;;4.47;0.90;;;;;;;-145.14;100.00;70583.66;4989363;28;20455;-69
2023/10/16 13:35:26;;;;;;;3.80;0.80;;;;;;;-145.14;100.00;70583.66;4986703;28;20435;-69
2023/10/16 13:37:51;;;;;;;3.60;0.70;;;;;;;-145.14;100.00;70583.66;4980130;28;20465;-69
2023/10/16 13:40:22;;;;;;;3.80;0.70;;;;;;;-145.14;100.00;70583.66;4981495;28;20208;-69
2023/10/16 13:42:51;;;;;;;2.00;0.70;;;;;;;-145.14;100.00;70583.66;4986355;28;20263;-69
2023/10/16 13:45:18;;;;;;;3.83;0.97;;;;;;;-145.14;100.00;70583.66;4985650;28;20425;-69